Tiempo atmosférico en la estación meteorológica de Alicante/Alacant, Alacant/Alicante (81 m.)



Fecha
DESCASC
Temp. máxima en grados centígrados (hora)
DESCASC
Temp. mínima en grados centígrados (hora)
DESCASC
Temp. media en grados centígrados
DESCASC
Racha de viento máxima en m/sg (hora)
DESCASC
Velocidad máxima media en intervalos de 10 minutos(hora)
DESCASC
Precipitaciones diarias en mm
DESCASC
Precipitaciones de 00:00 a 06:00 en mm
DESCASC
Precipitaciones de 06:00 a 12:00 en mm
DESCASC
Precipitaciones de 12:00 a 18:00 en mm
DESCASC
Precipitaciones de 18:00 a 24:00 en mm
DESCASC
23-05-2018 26.4 (13:50) 14.7 (06:50) 20.5 6.94 (14:20) 3.89 (15:30) 0 0 0 0 0
22-05-2018 25.2 (14:30) 14.4 (07:10) 19.8 7.5 (15:00) 4.17 (14:50) 0 0 0 0 0
21-05-2018 23.3 (14:50) 13.7 (06:40) 18.5 7.22 (15:00) 4.17 (14:30) 0 0 0 0 0
20-05-2018 23.4 (13:10) 13.3 (00:00) 18.3 7.5 (14:40) 3.89 (15:20) 0 0 0 0 0
19-05-2018 23.4 (14:20) 12.9 (00:00) 18.1 7.22 (14:00) 3.61 (16:30) 0 0 0 0 0
18-05-2018 23.4 (13:30) 13 (00:00) 18.2 6.67 (15:20) 3.61 (17:50) 0 0 0 0 0
17-05-2018 22.4 (12:40) 12.9 (00:00) 17.6 10.28 (12:00) 5.56 (12:10) 0 0 0 0 0
16-05-2018 22.6 (16:00) 12 (00:00) 17.3 8.89 (16:40) 5 (17:50) 0 0 0 0 0
15-05-2018 21.8 (14:30) 13.2 (00:00) 17.5 7.5 (13:30) 4.17 (15:10) 0 0 0 0 0
14-05-2018 23.2 (12:40) 12.2 (00:00) 17.7 8.33 (12:50) 4.72 (13:10) 0 0 0 0 0
13-05-2018 23.9 (14:10) 15.4 (00:00) 19.6 10.83 (01:00) 5.28 (16:00) 0 0 0 0 0
12-05-2018 23.5 (15:20) 14.7 (00:00) 19.1 6.39 (12:20) 3.33 (11:20) 1 0 0 0 1
11-05-2018 24.2 (15:10) 15.4 (03:10) 19.8 6.39 (15:30) 3.61 (16:50) 0 0 0 0 0
10-05-2018 22.9 (15:20) 16.7 (00:00) 19.8 9.44 (16:30) 5 (14:50) 0.2 0 0.2 0 0
09-05-2018 23.9 (14:40) 15 (00:00) 19.4 6.67 (15:20) 3.33 (15:10) 1.6 0 0 0 1.6
08-05-2018 22.5 (14:10) 14.6 (00:00) 18.6 6.67 (14:30) 3.89 (14:20) 0.4 0 0 0 0.4
07-05-2018 21.9 (15:10) 12.6 (00:00) 17.3 6.67 (12:00) 4.17 (11:30) 0 0 0 0 0
06-05-2018 23.3 (13:20) 12.9 (00:00) 18.1 6.67 (13:40) 3.61 (18:10) 0 0 0 0 0
05-05-2018 22.8 (14:10) 13.6 (00:00) 18.2 6.39 (14:00) 4.17 (15:40) 0 0 0 0 0
04-05-2018 20.8 (10:30) 14.9 (00:00) 17.8 7.78 (16:10) 4.17 (17:00) 0.2 0 0 0 0.2
03-05-2018 24.3 (12:40) 16.6 (00:00) 20.4 8.89 (01:00) 5 (13:50) 0 0 0 0 0
02-05-2018 24.6 (16:00) 8.6 (00:00) 16.6 10 (18:20) 5 (19:00) 0 0 0 0 0
01-05-2018 18.3 (13:20) 10.4 (05:30) 14.3 8.33 (13:40) 4.17 (13:00) 0.2 0.2 0 0 0
30-04-2018 20.4 (12:30) 10.3 (00:00) 15.3 9.72 (13:50) 5.56 (13:50) 0.4 0 0 0 0.4
29-04-2018 22.7 (17:00) 11.4 (00:00) 17.1 15 (18:20) 6.39 (12:30) 0 0 0 0 0
28-04-2018 19 (16:40) 14.6 (00:00) 16.8 6.67 (00:30) 4.17 (00:30) 0 0 0 0 0
27-04-2018 26 (17:10) 13.3 (00:00) 19.7 12.22 (18:20) 5.56 (18:20) 6.6 0 0 1.8 4.8
26-04-2018 22.7 (12:50) 15.8 (00:00) 19.3 8.61 (16:00) 4.44 (14:00) 0.2 0.2 0 0 0
25-04-2018 21.2 (19:10) 16.9 (00:00) 19.1 7.5 (10:20) 3.89 (10:20) 1.6 0 0 0.8 0.8
24-04-2018 25.3 (14:10) 19.6 (00:00) 22.4 15.56 (17:00) 8.61 (13:00) 0 0 0 0 0

Gráficas

Temp. máximas Temp. mínimas Temp. medias Precipitaciones Rachas de viento máximas Velocidades máximas media en intervalos de 10 minutos

Datos horarios

Fecha y hora oficial Temperatura (ºC) Velocidad del viento (km/h) Dirección del viento Racha (km/h) Dirección de racha Precipitación (mm) Presión (hPa) Tendencia (hPa) Humedad (%)
2018-05-23 23:00:00 19.9 7 Este 14 Nordeste 0 1007.5 0.8 67
2018-05-23 22:00:00 20.3 6 Nordeste 13 Norte 0 1007.1 0.6 61
2018-05-23 21:00:00 21 6 Este 14 Este 0 1007 0.1 56
2018-05-23 20:00:00 22.1 8 Este 16 Este 0 1006.7 -0.5 46
2018-05-23 19:00:00 23 10 Este 18 Este 0 1006.5 -0.8 35
2018-05-23 18:00:00 25.4 8 Sudeste 18 Sur 0 1006.9 -0.7 36
2018-05-23 17:00:00 25.4 10 Sudeste 22 Sur 0 1007.2 -0.6 37
2018-05-23 16:00:00 25.9 13 Sudeste 24 Sur 0 1007.3 -1 37
2018-05-23 15:00:00 25.7 10 Este 25 Nordeste 0 1007.6 -0.7 39
2018-05-23 14:00:00 26 12 Sudeste 20 Sur 0 1007.8 -0.5 41
2018-05-23 13:00:00 24.7 10 Sudeste 16 Sudeste 0 1008.3 0.3 36
2018-05-23 12:00:00 24.6 7 Sudeste 15 Sudeste 0 1008.3 0.5 41
2018-05-23 11:00:00 23.8 6 Sur 11 Sur 0 1008.3 0.7 48
2018-05-23 10:00:00 21.8 4 Este 9 Este 0 1008 0.8 62
2018-05-23 09:00:00 19.3 6 Este 9 Este 0 1007.8 1.1 77
2018-05-23 08:00:00 16.5 4 Norte 7 Norte 0 1007.6 1.2 80
2018-05-23 07:00:00 14.8 4 Norte 6 Norte 0 1007.2 0.7 73
2018-05-23 06:00:00 15.3 3 Noroeste 5 Este 0 1006.7 0 72
2018-05-23 05:00:00 15.1 2 Noroeste 4 Noroeste 0 1006.4 -0.3 74
2018-05-23 04:00:00 15.5 3 Norte 5 Oeste 0 1006.5 -0.1 69
2018-05-23 03:00:00 16 2 Noroeste 6 Sudoeste 0 1006.7 -0.2 76
2018-05-23 02:00:00 16.6 4 Oeste 7 Oeste 0 1006.7 -0.1 66
2018-05-23 01:00:00 17.8 3 Oeste 6 Oeste 0 1006.6 0.5 75
2018-05-23 00:00:00 18.3 0 Calma 2 Sudoeste 0 1006.9 1.1 83
2018-05-22 23:00:00 19 0 Calma 11 Nordeste 0 1006.8 1.6 82
2018-05-22 22:00:00 19.3 8 Nordeste 11 Nordeste 0 1006.1 1.2 80
2018-05-22 21:00:00 20 5 Sudeste 13 Sudeste 0 1005.8 1.2 78
2018-05-22 20:00:00 21.3 7 Sudeste 17 Sudeste 0 1005.2 0.4 70
2018-05-22 19:00:00 23.1 9 Sudeste 15 Sudeste 0 1004.9 0.3 63
2018-05-22 18:00:00 23.9 8 Sur 21 Sudeste 0 1004.6 0.1 61
2018-05-22 17:00:00 23.6 9 Sudeste 22 Sur 0 1004.8 0.5 62
2018-05-22 16:00:00 24.1 13 Sudeste 23 Este 0 1004.6 0.1 58
2018-05-22 15:00:00 24.1 14 Sudeste 27 Sudeste 0 1004.5 0 55
2018-05-22 14:00:00 24.9 12 Sudeste 26 Sudeste 0 1004.3 -0.2 53
2018-05-22 13:00:00 24.6 11 Sudeste 23 Sudeste 0 1004.5 0.1 56
2018-05-22 12:00:00 23.6 12 Sudeste 21 Sudeste 0 1004.5 0.3 60
2018-05-22 11:00:00 23.3 7 Sudeste 15 Sudeste 0 1004.5 0.8 52
2018-05-22 10:00:00 22.5 5 Sudeste 10 Sur 0 1004.4 1.1 55
2018-05-22 09:00:00 19.8 2 Sudoeste 7 Sudoeste 0 1004.2 1.2 65
2018-05-22 08:00:00 16.4 3 Oeste 5 Oeste 0 1003.7 0.8 72
2018-05-22 07:00:00 14.5 4 Noroeste 7 Norte 0 1003.3 0.1 77
2018-05-22 06:00:00 15.1 3 Norte 6 Norte 0 1003 -0.1 82
2018-05-22 05:00:00 15.6 0 Calma 6 Noroeste 0 1002.9 -0.1 80
2018-05-22 04:00:00 16.3 4 Noroeste 7 Noroeste 0 1003.2 0 74
2018-05-22 03:00:00 17.2 0 Calma 5 Norte 0 1003.1 -0.3 77
2018-05-22 02:00:00 17.1 0 Calma 6 Noroeste 0 1003 -0.1 78
2018-05-22 01:00:00 17.8 3 Oeste 8 Sur 0 1003.2 0.5 80
2018-05-22 00:00:00 18.4 6 Sur 9 Sur 0 1003.4 0.8 79
2018-05-21 23:00:00 18.2 2 Sudeste 4 Norte 0 1003.1 0.8 68
2018-05-21 22:00:00 18.8 2 Noroeste 8 Nordeste 0 1002.7 0.6 65
2018-05-21 21:00:00 19.2 6 Nordeste 9 Nordeste 0 1002.6 0.8 69
2018-05-21 20:00:00 19.7 5 Sudeste 15 Sudeste 0 1002.3 0.5 69
2018-05-21 19:00:00 20.5 8 Sudeste 19 Sudeste 0 1002.1 0.1 64
2018-05-21 18:00:00 22.9 10 Sudeste 24 Sur 0 1001.8 -0.4 54
2018-05-21 17:00:00 22.5 13 Sudeste 26 Sur 0 1001.8 -0.8 58
2018-05-21 16:00:00 22.8 13 Sur 24 Sudeste 0 1002 -0.9 58
2018-05-21 15:00:00 23.1 12 Sudeste 26 Sudeste 0 1002.2 -0.9 55
2018-05-21 14:00:00 23 10 Sur 23 Sudeste 0 1002.6 -0.6 60
2018-05-21 13:00:00 21.7 13 Sudeste 22 Este 0 1002.9 -0.6 63
2018-05-21 12:00:00 22.2 13 Sudeste 21 Sudeste 0 1003.1 -0.2 60
2018-05-21 11:00:00 21.3 6 Sur 14 Oeste 0 1003.2 0.1 62
2018-05-21 10:00:00 19.5 8 Sudoeste 16 Sur 0 1003.5 0.7 68
2018-05-21 09:00:00 17.7 2 Nordeste 5 Norte 0 1003.3 0.5 73
2018-05-21 08:00:00 14.9 4 Norte 7 Norte 0 1003.1 0.4 80
2018-05-21 07:00:00 13.7 2 Norte 7 Norte 0 1002.8 -0.1 81
2018-05-21 06:00:00 14.2 2 Norte 10 Nordeste 0 1002.8 -0.3 80
2018-05-21 05:00:00 14.5 5 Nordeste 8 Nordeste 0 1002.7 -0.7 84
2018-05-21 04:00:00 14.7 0 Calma 4 Oeste 0 1002.9 -1 85
2018-05-21 03:00:00 15.1 3 Oeste 7 Oeste 0 1003.1 -1.1 82
2018-05-21 02:00:00 15.7 4 Oeste 8 Oeste 0 1003.4 -0.9 80
2018-05-21 01:00:00 16.5 4 Oeste 8 Oeste 0 1003.9 -0.1 81
2018-05-21 00:00:00 17.1 3 Norte 7 Norte 0 1004.2 0.7 82
2018-05-20 23:00:00 17.5 0 Calma 7 Sudeste 0 1004.3 1 81
2018-05-20 22:00:00 17.9 4 Sudeste 9 Sudeste 0 1004 0.9 78
2018-05-20 21:00:00 18.6 5 Sudeste 12 Sudeste 0 1003.5 0.2 75
2018-05-20 20:00:00 19.5 8 Sudeste 14 Sudeste 0 1003.3 -0.2 68
2018-05-20 19:00:00 21.3 8 Sudeste 19 Sudeste 0 1003.1 -1.1 65
2018-05-20 18:00:00 21.9 8 Sudeste 21 Sudeste 0 1003.3 -1.6 62
2018-05-20 17:00:00 21.7 11 Sudeste 22 Sudeste 0 1003.5 -1.5 63
2018-05-20 16:00:00 22.1 12 Sudeste 24 Sur 0 1004.2 -1.2 55
2018-05-20 15:00:00 22.6 13 Sudeste 27 Sudeste 0 1004.9 -0.7 51
2018-05-20 14:00:00 23 12 Sudeste 23 Sudeste 0 1005 -0.7 52
2018-05-20 13:00:00 23.3 8 Sur 19 Sudeste 0 1005.4 -0.3 51
2018-05-20 12:00:00 22.9 10 Sur 20 Sur 0 1005.6 -0.1 54
2018-05-20 11:00:00 21.3 6 Sur 11 Sudoeste 0 1005.7 0.1 56
2018-05-20 10:00:00 19 2 Sudoeste 7 Sur 0 1005.7 0.3 68
2018-05-20 09:00:00 17.7 2 Noroeste 6 Oeste 0 1005.7 0.6 70
2018-05-20 08:00:00 14.2 3 Noroeste 6 Noroeste 0 1005.6 0.6 74
2018-05-20 07:00:00 13.3 3 Oeste 5 Oeste 0 1005.4 0.1 80
2018-05-20 06:00:00 13.4 2 Noroeste 5 Oeste 0 1005.1 -0.9 78
2018-05-20 05:00:00 14.2 4 Norte 6 Nordeste 0 1005 -1.6 75
2018-05-20 04:00:00 14.2 2 Noroeste 5 Oeste 0 1005.3 -1.4 82
2018-05-20 03:00:00 14.8 3 Oeste 8 Oeste 0 1006 -0.8 78
2018-05-20 02:00:00 15.4 3 Oeste 8 Oeste 0 1006.6 -0.2 78
2018-05-20 01:00:00 16.3 3 Norte 7 Norte 0 1006.7 0.5 80
2018-05-20 00:00:00 17.1 4 Nordeste 8 Este 0 1006.8 0.5 81
2018-05-19 23:00:00 17.4 4 Este 6 Nordeste 0 1006.8 1.1 79
2018-05-19 22:00:00 17.7 3 Sudeste 9 Sudeste 0 1006.2 0.6 76
2018-05-19 21:00:00 18.6 5 Sudeste 13 Sudeste 0 1006.3 0.5 71
2018-05-19 20:00:00 20 7 Sudeste 17 Sur 0 1005.7 -0.3 65
2018-05-19 19:00:00 21.5 8 Sudeste 22 Sur 0 1005.6 -0.6 60
2018-05-19 18:00:00 21.8 12 Sudeste 23 Sudeste 0 1005.8 -0.8 58
2018-05-19 17:00:00 22.2 13 Sudeste 25 Sudeste 0 1006 -1 56
2018-05-19 16:00:00 22.4 11 Sudeste 25 Este 0 1006.2 -1.2 55
2018-05-19 15:00:00 22.9 13 Sudeste 23 Este 0 1006.6 -1 47
2018-05-19 14:00:00 22.7 13 Este 26 Nordeste 0 1007 -0.6 51
2018-05-19 13:00:00 22.7 9 Sudeste 21 Sudeste 0 1007.4 0.1 54
2018-05-19 12:00:00 21.9 10 Sudeste 22 Sudeste 0 1007.6 0.7 53
2018-05-19 11:00:00 21.9 9 Sudeste 17 Sudeste 0 1007.6 1 50
2018-05-19 10:00:00 20.8 6 Sudeste 12 Sudeste 0 1007.3 1.1 53
2018-05-19 09:00:00 18.8 4 Nordeste 8 Nordeste 0 1006.9 1 57
2018-05-19 08:00:00 14.5 2 Oeste 6 Oeste 0 1006.6 0.4 76
2018-05-19 07:00:00 13 2 Oeste 6 Oeste 0 1006.2 -0.1 81
2018-05-19 06:00:00 13.7 2 Noroeste 7 Oeste 0 1005.9 -1 81
2018-05-19 05:00:00 14.9 3 Oeste 8 Noroeste 0 1006.2 -1 84
2018-05-19 04:00:00 15.1 4 Noroeste 9 Noroeste 0 1006.3 -0.9 85
2018-05-19 03:00:00 15.3 5 Noroeste 11 Oeste 0 1006.9 -0.3 79
2018-05-19 02:00:00 16 5 Oeste 10 Oeste 0 1007.2 -0.1 79
2018-05-19 01:00:00 17.3 0 Calma 13 Sur 0 1007.2 0.3 84
2018-05-19 00:00:00 17.4 6 Sur 10 Sur 0 1007.2 0.6 83
2018-05-18 23:00:00 17.6 3 Este 8 Este 0 1007.3 1 81
2018-05-18 22:00:00 17.9 4 Nordeste 11 Nordeste 0 1006.9 0.7 78
2018-05-18 21:00:00 18.5 5 Nordeste 15 Sudeste 0 1006.6 0.6 75
2018-05-18 20:00:00 19.9 9 Sudeste 19 Sudeste 0 1006.3 0.2 67
2018-05-18 19:00:00 21.3 9 Sudeste 20 Sudeste 0 1006.2 -0.2 61
2018-05-18 18:00:00 22.3 11 Sudeste 21 Sudeste 0 1006 -0.7 56
2018-05-18 17:00:00 23.1 12 Sudeste 21 Sur 0 1006.1 -0.9 56
2018-05-18 16:00:00 23.1 11 Sudeste 24 Sudeste 0 1006.4 -1.1 58
2018-05-18 15:00:00 22.5 12 Sudeste 23 Sudeste 0 1006.7 -0.7 52
2018-05-18 14:00:00 23.1 10 Sudeste 20 Sudeste 0 1007 -0.2 51
2018-05-18 13:00:00 22.4 11 Sudeste 20 Sudeste 0 1007.5 0.4 55
2018-05-18 12:00:00 22.7 10 Sur 17 Sur 0 1007.4 0.5 54
2018-05-18 11:00:00 21.3 8 Sur 16 Sudoeste 0 1007.2 0.5 58
2018-05-18 10:00:00 20.6 7 Sur 13 Sur 0 1007.1 0.8 51
2018-05-18 09:00:00 18.6 0 Calma 5 Noroeste 0 1006.9 0.9 55
2018-05-18 08:00:00 14.6 3 Noroeste 6 Noroeste 0 1006.7 0.7 70
2018-05-18 07:00:00 13 3 Noroeste 4 Noroeste 0 1006.3 0.4 74
2018-05-18 06:00:00 13.5 3 Noroeste 8 Noroeste 0 1006 0 72
2018-05-18 05:00:00 13.8 4 Noroeste 6 Noroeste 0 1006 -0.5 73
2018-05-18 04:00:00 14.2 3 Noroeste 8 Nordeste 0 1005.9 -1.3 70
2018-05-18 03:00:00 14.9 5 Nordeste 9 Nordeste 0 1006 -1.4 68
2018-05-18 02:00:00 15.2 4 Norte 7 Norte 0 1006.5 -0.9 70
2018-05-18 01:00:00 16.1 3 Noroeste 7 Norte 0 1007.2 0.5 69
2018-05-18 00:00:00 16.8 6 Nordeste 9 Nordeste 0 1007.4 1.2 67
2018-05-17 23:00:00 17.4 3 Nordeste 6 Nordeste 0 1007.4 1.6 68
2018-05-17 22:00:00 17.9 4 Nordeste 9 Nordeste 0 1006.7 1 64
2018-05-17 21:00:00 18.6 7 Nordeste 13 Nordeste 0 1006.2 0.4 65
2018-05-17 20:00:00 19.6 7 Este 13 Sudeste 0 1005.8 -0.1 58
2018-05-17 19:00:00 20.7 8 Este 22 Sudeste 0 1005.7 -0.4 58
2018-05-17 18:00:00 21.2 12 Este 23 Nordeste 0 1005.8 -0.5 59
2018-05-17 17:00:00 21.4 11 Este 27 Sudeste 0 1005.9 -0.6 57
2018-05-17 16:00:00 21.7 11 Este 30 Nordeste 0 1006.1 -0.4 56
2018-05-17 15:00:00 21.4 15 Este 35 Este 0 1006.3 -0.3 53
2018-05-17 14:00:00 21.8 14 Este 35 Este 0 1006.5 0.3 49
2018-05-17 13:00:00 21.9 18 Este 34 Este 0 1006.5 0.5 45
2018-05-17 12:00:00 21.8 16 Este 37 Este 0 1006.6 0.8 43
2018-05-17 11:00:00 21.5 18 Este 31 Nordeste 0 1006.2 0.7 44
2018-05-17 10:00:00 20.7 14 Nordeste 24 Este 0 1006 0.4 47
2018-05-17 09:00:00 18 8 Nordeste 12 Nordeste 0 1005.8 0.1 55
2018-05-17 08:00:00 14.1 4 Norte 8 Norte 0 1005.5 -0.1 64
2018-05-17 07:00:00 12.9 2 Noroeste 5 Noroeste 0 1005.6 -0.4 65
2018-05-17 06:00:00 13.6 4 Noroeste 9 Norte 0 1005.7 -0.8 63
2018-05-17 05:00:00 13.9 5 Norte 9 Norte 0 1005.6 -0.9 61
2018-05-17 04:00:00 14.5 5 Nordeste 9 Nordeste 0 1006 -0.9 57
2018-05-17 03:00:00 14.5 3 Nordeste 8 Norte 0 1006.5 -0.4 59
2018-05-17 02:00:00 15 4 Norte 7 Norte 0 1006.5 -0.1 63
2018-05-17 01:00:00 15.8 5 Norte 9 Nordeste 0 1006.9 1 63
2018-05-17 00:00:00 16.1 4 Norte 8 Nordeste 0 1006.9 1 66
2018-05-16 23:00:00 16.8 4 Norte 11 Nordeste 0 1006.6 1 71
2018-05-16 22:00:00 17.4 7 Nordeste 18 Nordeste 0 1005.9 0.3 68
2018-05-16 21:00:00 18 12 Nordeste 23 Nordeste 0 1005.9 0.2 61
2018-05-16 20:00:00 19.2 13 Nordeste 24 Nordeste 0 1005.6 -0.1 58
2018-05-16 19:00:00 20.5 14 Este 26 Nordeste 0 1005.6 -0.6 50
2018-05-16 18:00:00 21.3 14 Este 29 Este 0 1005.7 -1.1 42
2018-05-16 17:00:00 21.6 13 Este 32 Nordeste 0 1005.7 -1.6 41
2018-05-16 16:00:00 22.4 11 Este 26 Este 0 1006.2 -1.4 38
2018-05-16 15:00:00 22 12 Este 26 Nordeste 0 1006.8 -0.7 43
2018-05-16 14:00:00 22.1 10 Este 25 Sudeste 0 1007.3 -0.1 42
2018-05-16 13:00:00 22 12 Este 25 Nordeste 0 1007.6 0.1 40
2018-05-16 12:00:00 21.7 10 Este 18 Nordeste 0 1007.5 0.3 36
2018-05-16 11:00:00 20.8 8 Este 18 Este 0 1007.4 0.5 36
2018-05-16 10:00:00 19.8 9 Este 16 Nordeste 0 1007.5 1 44
2018-05-16 09:00:00 17.5 4 Nordeste 9 Nordeste 0 1007.2 0.9 62
2018-05-16 08:00:00 13.5 5 Norte 8 Norte 0 1006.9 0.5 81
2018-05-16 07:00:00 12 3 Noroeste 6 Noroeste 0 1006.5 -0.2 83
2018-05-16 06:00:00 12.3 5 Noroeste 6 Norte 0 1006.3 -0.5 82
2018-05-16 05:00:00 12.6 3 Noroeste 5 Noroeste 0 1006.4 -0.9 83
2018-05-16 04:00:00 13.1 2 Noroeste 5 Norte 0 1006.7 -1 81
2018-05-16 03:00:00 13.4 2 Noroeste 5 Noroeste 0 1006.8 -1.2 78
2018-05-16 02:00:00 14.3 3 Oeste 6 Noroeste 0 1007.3 -0.3 76
2018-05-16 01:00:00 15.1 3 Noroeste 6 Noroeste 0 1007.7 0.6 76
2018-05-16 00:00:00 15.9 3 Sudoeste 7 Sudoeste 0 1008 1.1 76
2018-05-15 23:00:00 16.2 4 Sudoeste 6 Sudoeste 0 1007.6 0.9 74
2018-05-15 22:00:00 16.6 2 Sur 10 Sudeste 0 1007.1 0.6 70
2018-05-15 21:00:00 17.4 6 Sudeste 13 Sudeste 0 1006.9 0.1 68
2018-05-15 20:00:00 18.5 6 Sur 20 Este 0 1006.7 -0.5 65
2018-05-15 19:00:00 19.6 9 Sudeste 21 Sudeste 0 1006.5 -1.1 58
2018-05-15 18:00:00 19.5 10 Sudeste 21 Sudeste 0 1006.8 -1.2 61
2018-05-15 17:00:00 20.1 10 Sudeste 25 Sudeste 0 1007.2 -1.1 53
2018-05-15 16:00:00 20.6 13 Sudeste 26 Sudeste 0 1007.6 -1.1 54
2018-05-15 15:00:00 21 12 Sudeste 26 Sur 0 1008 -0.8 48
2018-05-15 14:00:00 21.7 13 Sudeste 27 Sudeste 0 1008.3 -0.3 41
2018-05-15 13:00:00 21.5 12 Sudeste 23 Sudeste 0 1008.7 0.1 44
2018-05-15 12:00:00 21.2 9 Sudeste 21 Sudeste 0 1008.8 0.3 51
2018-05-15 11:00:00 20.9 9 Sudeste 19 Sudeste 0 1008.6 0.1 42
2018-05-15 10:00:00 19.8 6 Sudeste 12 Sudeste 0 1008.6 0.5 46
2018-05-15 09:00:00 17.7 3 Este 6 Sudoeste 0 1008.5 0.9 69
2018-05-15 08:00:00 14.6 2 Noroeste 8 Norte 0 1008.5 0.9 78
2018-05-15 07:00:00 13.3 5 Norte 8 Norte 0 1008.1 0.6 84
2018-05-15 06:00:00 13.3 4 Norte 8 Norte 0 1007.6 0.2 81
2018-05-15 05:00:00 13.5 5 Norte 9 Norte 0 1007.6 0 79
2018-05-15 04:00:00 13.8 4 Norte 9 Nordeste 0 1007.5 -0.3 75
2018-05-15 03:00:00 13.7 4 Norte 6 Norte 0 1007.4 -0.4 75
2018-05-15 02:00:00 13.8 3 Nordeste 6 Nordeste 0 1007.6 -0.4 74
2018-05-15 01:00:00 14.6 2 Noroeste 5 Noroeste 0 1007.8 0.3 71
2018-05-15 00:00:00 15.5 3 Noroeste 7 Nordeste 0 1007.8 1 70
2018-05-14 23:00:00 16.3 4 Norte 7 Nordeste 0 1008 1.3 68
2018-05-14 22:00:00 16.7 4 Este 7 Este 0 1007.5 0.7 67
2018-05-14 21:00:00 17.2 5 Sur 13 Sudeste 0 1006.8 -0.1 62
2018-05-14 20:00:00 18.1 7 Sudeste 20 Sudeste 0 1006.7 -0.1 61
2018-05-14 19:00:00 19 9 Sudeste 21 Este 0 1006.8 -0.1 60
2018-05-14 18:00:00 20.7 10 Sudeste 26 Este 0 1006.9 0.1 53
2018-05-14 17:00:00 20.4 13 Este 30 Nordeste 0 1006.8 -0.3 54
2018-05-14 16:00:00 20.4 14 Sudeste 28 Sudeste 0 1006.9 -0.4 57
2018-05-14 15:00:00 20.8 13 Este 29 Sudeste 0 1006.8 -0.7 56
2018-05-14 14:00:00 20.7 15 Sudeste 30 Sudeste 0 1007.1 -0.7 59
2018-05-14 13:00:00 22.3 16 Sudeste 30 Sudeste 0 1007.3 -0.9 44
2018-05-14 12:00:00 22.2 6 Norte 23 Norte 0 1007.5 -0.8 26
2018-05-14 11:00:00 21.6 7 Noroeste 20 Norte 0 1007.8 -0.6 26
2018-05-14 10:00:00 20.7 6 Noroeste 13 Sudoeste 0 1008.2 0.4 28
2018-05-14 09:00:00 17.7 6 Oeste 13 Noroeste 0 1008.3 0.6 36
2018-05-14 08:00:00 12.7 3 Oeste 5 Norte 0 1008.4 0.6 52
2018-05-14 07:00:00 12.7 5 Noroeste 13 Sudoeste 0 1007.8 -0.3 50
2018-05-14 06:00:00 12.3 6 Oeste 14 Noroeste 0 1007.7 -0.8 63
2018-05-14 05:00:00 12.4 3 Noroeste 12 Sudoeste 0 1007.8 -1.4 78
2018-05-14 04:00:00 12.7 5 Oeste 12 Noroeste 0 1008.1 -1.5 79
2018-05-14 03:00:00 12.9 5 Noroeste 12 Oeste 0 1008.5 -1.6 77
2018-05-14 02:00:00 13.8 4 Oeste 6 Noroeste 0 1009.2 -1 76
2018-05-14 01:00:00 15.1 3 Norte 7 Norte 0 1009.6 -0.1 74
2018-05-11 20:00:00 20 9 Sur 17 Sur 0 1006.5 -0.8 72
2018-05-11 19:00:00 21.1 9 Sudeste 18 Sudeste 0 1006.7 -1.1 66
2018-05-11 18:00:00 22.2 9 Sudeste 23 Sudeste 0 1007 -1 62
2018-05-11 17:00:00 22.6 12 Sudeste 22 Sudeste 0 1007.3 -1.4 57
2018-05-11 16:00:00 23.4 10 Sudeste 23 Sudoeste 0 1007.8 -1.5 55
2018-05-11 15:00:00 24.1 9 Sudeste 20 Sur 0 1008 -1.9 54
2018-05-11 14:00:00 23.5 12 Sudeste 19 Sudeste 0 1008.7 -1.1 53
2018-05-11 13:00:00 22.9 7 Sudeste 18 Sudeste 0 1009.3 -0.7 54
2018-05-11 12:00:00 22.3 9 Sudeste 19 Este 0 1009.9 0.4 56
2018-05-11 11:00:00 20.7 6 Sudeste 14 Sudeste 0 1009.8 0.5 60
2018-05-11 10:00:00 18.8 3 Nordeste 9 Nordeste 0 1010 1.4 70
2018-05-11 09:00:00 17.3 4 Norte 6 Nordeste 0 1009.5 1.3 80
2018-05-11 08:00:00 16.3 3 Norte 6 Norte 0 1009.3 1.3 83
2018-05-11 07:00:00 15.9 4 Norte 8 Norte 0 1008.6 0.3 84
2018-05-11 06:00:00 15.5 4 Norte 10 Nordeste 0 1008.2 0 85
2018-05-11 05:00:00 15.9 4 Norte 10 Nordeste 0 1008 -0.6 85
2018-05-11 04:00:00 15.7 4 Norte 8 Nordeste 0 1008.3 -0.4 85
2018-05-11 03:00:00 15.5 5 Norte 9 Norte 0 1008.2 -0.1 83
2018-05-11 02:00:00 15.7 3 Norte 8 Norte 0 1008.6 0.4 82
2018-05-11 01:00:00 16.4 0 Calma 9 Este 0 1008.7 0.9 79
2018-05-11 00:00:00 16.7 4 Nordeste 7 Nordeste 0 1008.3 0.7 77
2018-05-10 23:00:00 17.1 4 Nordeste 7 Este 0 1008.2 1 74
2018-05-10 22:00:00 17.5 4 Nordeste 10 Este 0 1007.8 1 73
2018-05-10 21:00:00 18 5 Nordeste 10 Nordeste 0 1007.6 1 76
2018-05-10 20:00:00 18.5 6 Nordeste 19 Este 0 1007.2 0.7 77
2018-05-10 19:00:00 19.3 8 Este 20 Nordeste 0 1006.8 0.7 75
2018-05-10 18:00:00 19.6 10 Este 26 Este 0 1006.6 1.3 76
2018-05-10 17:00:00 20 9 Este 34 Este 0 1006.5 1 72
2018-05-10 16:00:00 22.3 15 Este 31 Sudeste 0 1006.1 0.9 55
2018-05-10 15:00:00 22.4 15 Este 30 Este 0 1005.3 0.4 47
2018-05-10 14:00:00 20.8 13 Este 28 Este 0 1005.5 1.1 56
2018-05-10 13:00:00 21 17 Nordeste 31 Nordeste 0 1005.2 1.2 62
2018-05-10 12:00:00 21.5 16 Este 26 Este 0 1004.9 1.7 64
2018-05-10 11:00:00 21.6 7 Este 14 Este 0 1004.4 1.9 76
2018-05-10 10:00:00 19.6 5 Este 13 Norte 0 1004 2.4 85
2018-05-10 09:00:00 18.1 9 Nordeste 19 Nordeste 0.2 1003.2 2.5 93
2018-05-10 08:00:00 17.5 6 Nordeste 14 Nordeste 0 1002.5 2.3 96
2018-05-10 07:00:00 17 4 Norte 12 Norte 0 1001.6 1.5 96
2018-05-10 06:00:00 17.1 8 Nordeste 12 Nordeste 0 1000.7 0.6 93
2018-05-10 05:00:00 17.3 4 Este 17 Norte 0 1000.2 0.1 93
2018-05-10 04:00:00 17.2 3 Oeste 6 Noroeste 0 1000.1 -0.1 94
2018-05-10 03:00:00 17.2 3 Norte 6 Norte 0 1000.1 -0.2 94
2018-05-10 02:00:00 17.3 2 Nordeste 6 Nordeste 0 1000.1 0.2 93
2018-05-10 01:00:00 17.4 4 Nordeste 12 Este 0 1000.2 1 93
2018-05-10 00:00:00 18.1 4 Nordeste 11 Nordeste 0 1000.3 1.4 90
2018-05-09 23:00:00 18.7 4 Oeste 17 Sur 1.6 999.9 0.8 84
2018-05-09 22:00:00 19.9 3 Sudoeste 9 Sur 0 999.2 0.2 71
2018-05-09 21:00:00 19.3 3 Sur 13 Sudeste 0 998.9 -0.9 81
2018-05-09 20:00:00 20.3 5 Sudoeste 8 Sur 0 999.1 -0.5 74
2018-05-09 19:00:00 19.8 8 Este 14 Este 0 999 -0.6 76
2018-05-09 18:00:00 21.2 7 Sudeste 15 Sur 0 999.8 -0.8 71
2018-05-09 17:00:00 23.1 7 Sudeste 20 Sur 0 999.6 -0.8 64
2018-05-09 16:00:00 20.9 9 Sudeste 24 Sudeste 0 999.6 -1.4 70
2018-05-09 15:00:00 21.6 10 Sudeste 21 Sudeste 0 1000.6 -1 67
2018-05-09 14:00:00 23.2 10 Sudeste 18 Sudeste 0 1000.4 -1.3 63
2018-05-09 13:00:00 22.1 10 Sudeste 16 Sudeste 0 1001 -0.5 68
2018-05-09 12:00:00 21.3 6 Sudeste 13 Este 0 1001.6 0.5 71
2018-05-09 11:00:00 19.7 6 Este 13 Este 0 1001.7 1 76
2018-05-09 10:00:00 19.5 6 Sudeste 12 Sudeste 0 1001.5 1.4 80
2018-05-09 09:00:00 18.1 3 Sur 5 Sudeste 0 1001.1 0.9 82
2018-05-09 08:00:00 15.3 0 Calma 6 Oeste 0 1000.7 -0.1 95
2018-05-09 07:00:00 15.2 3 Noroeste 7 Noroeste 0 1000.1 -1.1 98
2018-05-09 06:00:00 15.4 3 Norte 8 Norte 0 1000.2 -1.3 97
2018-05-09 05:00:00 15.7 4 Norte 6 Nordeste 0 1000.8 -0.9 94
2018-05-09 04:00:00 16.1 3 Norte 5 Noroeste 0 1001.2 -0.4 92
2018-05-09 03:00:00 16.6 2 Sudeste 9 Sudeste 0 1001.5 -0.2 91
2018-05-09 02:00:00 16.8 0 Calma 5 Sudeste 0 1001.7 -0.1 88
2018-05-09 01:00:00 17.4 2 Sur 5 Oeste 0 1001.6 -0.1 86
2018-05-09 00:00:00 17.5 3 Oeste 6 Sudoeste 0 1001.7 0.4 85
2018-05-08 23:00:00 17.7 4 Sudoeste 6 Nordeste 0 1001.8 0.7 83
2018-05-08 22:00:00 17.6 0 Calma 10 Sudoeste 0 1001.7 0.8 85
2018-05-08 21:00:00 17.8 7 Sudoeste 13 Sudoeste 0 1001.3 -0.5 86
2018-05-08 20:00:00 18.2 8 Sur 14 Sudoeste 0 1001.1 -1.3 81
2018-05-08 19:00:00 18.5 7 Sudeste 14 Sur 0.4 1000.9 -1.1 84
2018-05-08 18:00:00 18.2 8 Sudoeste 15 Sudeste 0 1001.8 -0.2 84
2018-05-08 17:00:00 18.8 6 Sudeste 15 Sur 0 1002.4 0.3 76
2018-05-08 16:00:00 21.7 10 Sur 22 Sudeste 0 1002 -0.5 65
2018-05-08 15:00:00 21.7 13 Sudeste 24 Sudeste 0 1002 -0.7 65
2018-05-08 14:00:00 22.3 12 Sudeste 21 Sudeste 0 1002.1 -1 62
2018-05-08 13:00:00 21 12 Sudeste 22 Sudeste 0 1002.5 -0.9 66
2018-05-08 12:00:00 21.3 10 Sudeste 17 Sur 0 1002.7 -0.7 67
2018-05-08 11:00:00 20.6 7 Sudeste 14 Sudeste 0 1003.1 0.2 66
2018-05-08 10:00:00 19.1 8 Sudoeste 16 Sur 0 1003.4 1 69
2018-05-08 09:00:00 16.9 7 Sur 17 Sur 0 1003.4 1.2 79
2018-05-08 08:00:00 15.6 6 Sudoeste 13 Sur 0 1002.9 -0.2 81
2018-05-08 07:00:00 14.7 0 Calma 11 Noroeste 0 1002.4 -1.1 85
2018-05-08 06:00:00 15.1 5 Noroeste 10 Noroeste 0 1002.2 -1.8 84
2018-05-08 05:00:00 16 4 Oeste 12 Sudoeste 0 1003.1 -1.6 81
2018-05-08 04:00:00 16.3 6 Sudoeste 13 Sudoeste 0 1003.5 -1.5 80
2018-05-08 03:00:00 16.5 6 Sudoeste 10 Sur 0 1004 -1.1 80
2018-05-08 02:00:00 16.5 5 Oeste 9 Oeste 0 1004.7 0 81
2018-05-08 01:00:00 16.8 6 Sur 10 Sur 0 1005 0.6 80
2018-05-08 00:00:00 16.6 3 Noroeste 6 Nordeste 0 1005.1 1.1 82
2018-05-07 23:00:00 16.4 5 Norte 9 Norte 0 1004.7 1 84
2018-05-07 22:00:00 16.5 5 Este 12 Este 0 1004.4 0.9 84
2018-05-07 21:00:00 17.2 7 Este 13 Sur 0 1004 0.4 78
2018-05-07 20:00:00 18.6 7 Sudeste 17 Sudeste 0 1003.7 -0.3 70
2018-05-07 19:00:00 20.4 7 Sudeste 21 Nordeste 0 1003.5 -1.3 66
2018-05-07 18:00:00 20.7 9 Este 21 Este 0 1003.6 -2.2 63
2018-05-07 17:00:00 21.6 10 Sudeste 22 Nordeste 0 1004 -2.6 60
2018-05-07 16:00:00 21.6 10 Nordeste 20 Nordeste 0 1004.8 -2.4 61
2018-05-07 15:00:00 21.6 11 Sudeste 21 Este 0 1005.8 -1.4 62
2018-05-07 14:00:00 20.2 10 Sudeste 23 Sudeste 0 1006.6 -0.3 68
2018-05-07 13:00:00 20 14 Sudeste 23 Sudeste 0 1007.2 0.6 69
2018-05-07 12:00:00 20.7 13 Sudeste 24 Sudeste 0 1007.2 1.1 65
2018-05-07 11:00:00 21.7 9 Sudeste 18 Sudeste 0 1006.9 1.1 52
2018-05-07 10:00:00 20.2 8 Sur 12 Sur 0 1006.6 1 55
2018-05-07 09:00:00 17.9 2 Noroeste 9 Noroeste 0 1006.1 0.4 64
2018-05-07 08:00:00 14.2 4 Oeste 9 Noroeste 0 1005.8 -0.5 76
2018-05-07 07:00:00 12.6 4 Oeste 8 Noroeste 0 1005.6 -1.1 80
2018-05-07 06:00:00 12.8 2 Noroeste 6 Norte 0 1005.7 -1.3 81
2018-05-07 05:00:00 13.2 3 Norte 8 Noroeste 0 1006.3 -0.9 80
2018-05-07 04:00:00 13.8 2 Oeste 6 Oeste 0 1006.7 -0.8 77
2018-05-07 03:00:00 14.5 2 Sudeste 10 Norte 0 1007 -0.5 77
2018-05-07 02:00:00 14.7 3 Norte 9 Noroeste 0 1007.2 -0.3 77
2018-05-07 01:00:00 15.4 0 Calma 6 Noroeste 0 1007.5 0.1 77
2018-05-07 00:00:00 16.2 5 Nordeste 9 Nordeste 0 1007.5 0.3 76
2018-05-06 23:00:00 16.8 5 Norte 10 Norte 0 1007.5 0.9 75
2018-05-06 22:00:00 17.4 4 Norte 8 Sur 0 1007.4 1 75
2018-05-06 21:00:00 18 4 Sudeste 15 Este 0 1007.2 0.4 73
2018-05-06 20:00:00 19.2 9 Sudeste 16 Sudeste 0 1006.6 -0.3 65
2018-05-06 19:00:00 20.7 8 Sudeste 21 Sur 0 1006.4 -1.1 58
2018-05-06 18:00:00 21.4 11 Sudeste 21 Sudeste 0 1006.8 -1.3 54
2018-05-06 17:00:00 22.1 8 Este 22 Este 0 1006.9 -1.2 51
2018-05-06 16:00:00 22 9 Este 19 Este 0 1007.5 -0.6 54
2018-05-06 15:00:00 19.7 7 Sudeste 17 Este 0 1008.1 -0.1 61
2018-05-06 14:00:00 22.1 10 Sur 24 Sudeste 0 1008.1 0.1 51
2018-05-06 13:00:00 22.7 10 Sur 21 Sur 0 1008.1 0.5 48
2018-05-06 12:00:00 22.5 10 Sur 17 Sudeste 0 1008.2 0.6 47
2018-05-06 11:00:00 22.4 8 Sudeste 15 Sudeste 0 1008 0.4 49
2018-05-06 10:00:00 20.8 4 Este 6 Este 0 1007.6 0.2 52
2018-05-06 09:00:00 18.1 3 Norte 5 Nordeste 0 1007.6 0.4 62
2018-05-06 08:00:00 13.9 4 Noroeste 6 Noroeste 0 1007.6 0.3 76
2018-05-06 07:00:00 12.9 3 Oeste 5 Sudoeste 0 1007.4 0 81
2018-05-06 06:00:00 13.4 0 Calma 8 Oeste 0 1007.2 -0.5 79
2018-05-06 05:00:00 13.8 4 Noroeste 9 Noroeste 0 1007.3 -0.9 77
2018-05-06 04:00:00 14.4 4 Noroeste 7 Noroeste 0 1007.4 -1.1 78
2018-05-06 03:00:00 14.6 0 Calma 5 Noroeste 0 1007.7 -0.7 80
2018-05-06 02:00:00 15.2 3 Noroeste 5 Norte 0 1008.2 0.1 81
2018-05-06 01:00:00 15.8 2 Norte 5 Norte 0 1008.5 1 81
2018-05-06 00:00:00 16.3 3 Norte 7 Este 0 1008.4 1.2 79
2018-05-05 23:00:00 16.8 6 Este 9 Este 0 1008.1 1 69
2018-05-05 22:00:00 17.3 3 Sudeste 5 Sudeste 0 1007.5 0.6 68
2018-05-05 21:00:00 18.1 3 Sudeste 9 Sudeste 0 1007.2 0.5 63
2018-05-05 20:00:00 18.9 6 Sudeste 12 Sudeste 0 1007.1 0.7 62
2018-05-05 19:00:00 20.7 7 Sudeste 18 Sudeste 0 1006.9 0.7 56
2018-05-05 18:00:00 19.7 9 Sudeste 18 Sudeste 0 1006.7 0.7 59
2018-05-05 17:00:00 20.7 11 Sudeste 22 Este 0 1006.4 0.4 55
2018-05-05 16:00:00 21.3 13 Sudeste 23 Sudeste 0 1006.2 -0.1 55
2018-05-05 15:00:00 21.5 11 Sudeste 21 Sudeste 0 1006 -0.1 48
2018-05-05 14:00:00 22 13 Sudeste 23 Sur 0 1006 0.1 46
2018-05-05 13:00:00 20.8 9 Sudeste 16 Sudeste 0 1006.3 0.5 54
2018-05-05 12:00:00 20.8 8 Sudeste 13 Sudeste 0 1006.1 0.5 49
2018-05-05 11:00:00 20.9 3 Sur 10 Sudeste 0 1005.9 0.6 50
2018-05-05 10:00:00 20.1 3 Sudeste 6 Noroeste 0 1005.8 0.7 50
2018-05-05 09:00:00 15.5 3 Oeste 7 Oeste 0 1005.6 0.4 73
2018-05-05 08:00:00 14 3 Noroeste 9 Noroeste 0 1005.3 0.1 76
2018-05-05 07:00:00 13.6 3 Noroeste 5 Norte 0 1005.1 -0.4 81
2018-05-05 06:00:00 14.3 3 Oeste 10 Noroeste 0 1005.2 -0.8 80
2018-05-05 05:00:00 14.9 4 Oeste 11 Oeste 0 1005.2 -1.2 78
2018-05-05 04:00:00 15.1 5 Noroeste 10 Oeste 0 1005.5 -1.1 77
2018-05-05 03:00:00 15.2 4 Oeste 7 Oeste 0 1006 -0.6 77
2018-05-05 02:00:00 15.3 4 Sudoeste 8 Sudoeste 0 1006.4 0.1 75
2018-05-05 01:00:00 15.3 4 Oeste 8 Noroeste 0 1006.6 0.9 73
2018-05-05 00:00:00 15.4 3 Norte 5 Nordeste 0.2 1006.6 1.6 75
2018-05-04 23:00:00 15.7 3 Nordeste 9 Este 0 1006.3 1.9 71
2018-05-04 22:00:00 16 5 Nordeste 10 Nordeste 0 1005.7 1.7 66
2018-05-04 21:00:00 16.3 5 Este 13 Este 0 1005 1.4 66
2018-05-04 20:00:00 16.7 6 Este 20 Este 0 1004.4 0.9 65
2018-05-04 19:00:00 17.5 8 Este 22 Este 0 1004 0.5 62
2018-05-04 18:00:00 19.1 14 Nordeste 24 Nordeste 0 1003.6 0 56
2018-05-04 17:00:00 18.7 15 Este 28 Este 0 1003.5 0.1 62
2018-05-04 16:00:00 20.2 10 Este 23 Este 0 1003.5 0.3 53
2018-05-04 15:00:00 19.1 12 Este 26 Sudeste 0 1003.6 0.7 53
2018-05-04 14:00:00 20.4 13 Sudeste 23 Este 0 1003.4 1 48
2018-05-04 13:00:00 20.6 14 Sudeste 23 Sudeste 0 1003.2 0.8 47
2018-05-04 12:00:00 20.3 13 Sudeste 22 Sudeste 0 1002.9 0.9 52
2018-05-04 11:00:00 20.2 10 Sudeste 17 Sudeste 0 1002.4 0.6 58
2018-05-04 10:00:00 19 4 Sudoeste 9 Oeste 0 1002.4 1.1 57
2018-05-04 09:00:00 16.9 6 Oeste 13 Oeste 0 1002 1.1 73
2018-05-04 08:00:00 15.4 6 Noroeste 12 Noroeste 0 1001.8 0.9 78
2018-05-04 07:00:00 15.2 5 Oeste 10 Oeste 0 1001.3 0.5 86
2018-05-04 06:00:00 15.6 4 Este 12 Nordeste 0 1000.9 0 85
2018-05-04 05:00:00 15.8 6 Este 14 Este 0 1000.9 -0.5 90
2018-05-04 04:00:00 15.6 6 Nordeste 17 Nordeste 0 1000.8 -0.8 87
2018-05-04 03:00:00 15.6 6 Nordeste 15 Nordeste 0 1000.9 -0.6 86
2018-05-04 02:00:00 16 8 Nordeste 13 Nordeste 0 1001.4 -0.2 80
2018-05-04 01:00:00 16.7 9 Este 13 Este 0 1001.6 0.3 66
2018-05-04 00:00:00 17 3 Nordeste 9 Nordeste 0 1001.5 0.6 60
2018-05-03 23:00:00 17.5 6 Este 11 Este 0 1001.6 1.1 52
2018-05-03 22:00:00 17.9 5 Este 15 Este 0 1001.3 0.9 47
2018-05-03 21:00:00 19 5 Nordeste 14 Norte 0 1000.9 0.3 41
2018-05-03 20:00:00 19.3 8 Nordeste 15 Nordeste 0 1000.5 -0.6 45
2018-05-03 19:00:00 21.4 7 Sudeste 18 Nordeste 0 1000.4 -0.8 35
2018-05-03 18:00:00 20.3 9 Este 17 Sudeste 0 1000.6 -0.7 43
2018-05-03 17:00:00 20.7 7 Sudeste 31 Este 0 1001.1 -0.1 40
2018-05-03 16:00:00 22.7 12 Sudeste 29 Sudeste 0 1001.2 -0.3 34
2018-05-03 15:00:00 22.5 17 Sudeste 31 Sudeste 0 1001.3 -0.1 33
2018-05-03 14:00:00 23.5 18 Sudeste 30 Sudeste 0 1001.2 -0.1 31
2018-05-03 13:00:00 23.6 14 Sudeste 26 Sudeste 0 1001.5 0 31
2018-05-03 12:00:00 23.8 12 Sudeste 21 Sudeste 0 1001.4 0 31
2018-05-03 11:00:00 23.5 8 Nordeste 21 Norte 0 1001.3 -0.2 30
2018-05-03 10:00:00 21.1 12 Noroeste 26 Norte 0 1001.5 0 35
2018-05-03 09:00:00 19 12 Noroeste 26 Noroeste 0 1001.4 0 37
2018-05-03 08:00:00 16.9 8 Noroeste 17 Sudoeste 0 1001.5 -0.4 39
2018-05-03 07:00:00 16.7 9 Oeste 20 Sudoeste 0 1001.5 -0.5 37
2018-05-03 06:00:00 16.8 4 Noroeste 20 Oeste 0 1001.4 -0.8 35
2018-05-03 05:00:00 17.2 3 Noroeste 20 Noroeste 0 1001.9 -0.9 34
2018-05-03 04:00:00 18.2 8 Oeste 22 Oeste 0 1002 -0.9 30
2018-05-03 03:00:00 18.3 9 Oeste 24 Oeste 0 1002.2 -0.6 30
2018-05-03 02:00:00 18.6 10 Noroeste 32 Oeste 0 1002.8 0.1 30
2018-05-03 01:00:00 18.9 13 Noroeste 32 Noroeste 0 1002.9 0.6 30
2018-05-03 00:00:00 19.2 10 Oeste 25 Oeste 0 1002.8 1 30
2018-05-02 23:00:00 19.5 9 Oeste 21 Oeste 0 1002.7 1.1 30
2018-05-02 22:00:00 20.2 8 Oeste 21 Oeste 0 1002.3 0.8 27
2018-05-02 21:00:00 21.3 10 Oeste 26 Noroeste 0 1001.8 0.1 25
2018-05-02 20:00:00 22.5 12 Noroeste 33 Noroeste 0 1001.6 -0.4 23
2018-05-02 19:00:00 23.1 18 Noroeste 36 Oeste 0 1001.5 -0.9 21
2018-05-02 18:00:00 24.1 14 Oeste 35 Oeste 0 1001.7 -1.4 19
2018-05-02 17:00:00 23.8 13 Noroeste 35 Noroeste 0 1002 -1.6 19
2018-05-02 16:00:00 24.6 13 Oeste 31 Noroeste 0 1002.4 -1.8 19
2018-05-02 15:00:00 23.5 13 Noroeste 35 Noroeste 0 1003.1 -1.4 21
2018-05-02 14:00:00 23.4 11 Oeste 28 Oeste 0 1003.6 -1.3 23
2018-05-02 13:00:00 22.3 13 Oeste 31 Sudoeste 0 1004.2 -0.6 25
2018-05-02 12:00:00 21.6 9 Sudoeste 24 Oeste 0 1004.5 -0.2 28
2018-05-02 11:00:00 19.6 9 Oeste 24 Oeste 0 1004.9 0.3 33
2018-05-02 10:00:00 17.5 10 Oeste 20 Oeste 0 1004.8 0.3 39
2018-05-02 09:00:00 15 4 Oeste 10 Noroeste 0 1004.7 0.5 46
2018-05-02 08:00:00 10.9 5 Noroeste 12 Noroeste 0 1004.6 0.2 62
2018-05-02 07:00:00 8.6 5 Oeste 8 Oeste 0 1004.5 -0.2 74
2018-05-02 06:00:00 8.8 4 Oeste 10 Oeste 0 1004.2 -0.9 77
2018-05-02 05:00:00 9.4 4 Noroeste 12 Oeste 0 1004.4 -0.9 76
2018-05-02 04:00:00 9.9 5 Oeste 11 Oeste 0 1004.7 -0.4 78
2018-05-02 03:00:00 10.2 5 Oeste 10 Oeste 0 1005.1 -0.1 78
2018-05-02 02:00:00 10.9 4 Oeste 8 Noroeste 0 1005.3 0.5 77
2018-05-02 01:00:00 12.1 3 Oeste 6 Noroeste 0 1005.1 0.5 72
2018-05-02 00:00:00 13 3 Noroeste 9 Nordeste 0 1005.2 0.6 71
2018-05-01 23:00:00 13.9 3 Sur 8 Sur 0 1004.8 0.5 62
2018-05-01 22:00:00 14.4 4 Sudoeste 12 Sudoeste 0 1004.6 0.5 61
2018-05-01 21:00:00 14.6 4 Sur 17 Sudeste 0 1004.6 0.8 60
2018-05-01 20:00:00 15.2 7 Sudeste 21 Sur 0 1004.3 1 58
2018-05-01 19:00:00 16.2 10 Sudeste 23 Sur 0 1004.1 0.8 57
2018-05-01 18:00:00 16.5 11 Sudeste 26 Sur 0 1003.8 0.2 54
2018-05-01 17:00:00 17.7 11 Sudeste 26 Sudeste 0 1003.3 -0.6 48
2018-05-01 16:00:00 18 14 Sudeste 26 Sudeste 0 1003.3 -0.8 48
2018-05-01 15:00:00 17.2 14 Sudeste 26 Sudeste 0 1003.6 -0.7 49
2018-05-01 14:00:00 17.7 12 Sudeste 30 Sudeste 0 1003.9 -0.5 48
2018-05-01 13:00:00 17.5 15 Sudeste 27 Sudeste 0 1004.1 0 47
2018-05-01 12:00:00 17.6 10 Sur 22 Sudeste 0 1004.3 0.3 41
2018-05-01 11:00:00 17 9 Sudeste 17 Sudeste 0 1004.4 0.5 41
2018-05-01 10:00:00 15.7 6 Norte 18 Noroeste 0 1004.1 0.5 42
2018-05-01 09:00:00 13.4 10 Noroeste 20 Norte 0 1004 0.8 45
2018-05-01 08:00:00 11.5 12 Noroeste 25 Noroeste 0 1003.9 0.3 49
2018-05-01 07:00:00 11 13 Noroeste 24 Noroeste 0 1003.6 -0.1 51
2018-05-01 06:00:00 10.9 12 Noroeste 24 Norte 0 1003.2 -0.9 54
2018-05-01 05:00:00 10.5 3 Norte 13 Noroeste 0 1003.6 -1 66
2018-05-01 04:00:00 12.1 5 Oeste 14 Noroeste 0 1003.7 -1.2 60
2018-05-01 03:00:00 12.9 3 Noroeste 5 Noroeste 0 1004.1 -1 83
2018-05-01 02:00:00 13.2 3 Sudoeste 7 Sudoeste 0 1004.6 -0.3 82
2018-05-01 01:00:00 13.4 2 Sudoeste 9 Sudeste 0.2 1004.9 0.4 84
2018-05-01 00:00:00 13.4 0 Calma 9 Nordeste 0.2 1005.1 1.1 84
2018-04-30 23:00:00 13.7 4 Norte 10 Sur 0 1004.9 1.3 82
2018-04-30 22:00:00 13.6 4 Este 11 Nordeste 0 1004.5 0.9 82
2018-04-30 21:00:00 14.2 5 Nordeste 12 Noroeste 0 1004 0.4 81
2018-04-30 20:00:00 14.8 5 Norte 14 Sudeste 0.2 1003.6 0.1 75
2018-04-30 19:00:00 15.5 9 Sudeste 16 Sudeste 0 1003.6 0 75
2018-04-30 18:00:00 15.9 8 Sudeste 23 Este 0 1003.6 -0.5 65
2018-04-30 17:00:00 17.1 13 Sudeste 30 Sudeste 0 1003.5 -0.9 60
2018-04-30 16:00:00 19.1 15 Sudeste 31 Sudeste 0 1003.6 -1.3 51
2018-04-30 15:00:00 19.5 15 Sudeste 34 Sudeste 0 1004.1 -0.9 51
2018-04-30 14:00:00 19.3 20 Sudeste 35 Sudeste 0 1004.4 -0.8 53
2018-04-30 13:00:00 19.6 14 Sudeste 23 Sudeste 0 1004.9 -0.5 35
2018-04-30 12:00:00 19.6 13 Sudeste 19 Sudeste 0 1005 -0.6 35
2018-04-30 11:00:00 18.2 4 Norte 14 Norte 0 1005.2 -0.1 34
2018-04-30 10:00:00 17.4 4 Nordeste 9 Este 0 1005.4 0.3 38
2018-04-30 09:00:00 15.2 3 Sudeste 6 Sudeste 0 1005.6 0.9 48
2018-04-30 08:00:00 11.6 0 Calma 4 Noroeste 0 1005.3 0.4 60
2018-04-30 07:00:00 11.1 2 Sudoeste 12 Norte 0 1005.1 0.1 59
2018-04-30 06:00:00 11.8 4 Nordeste 13 Noroeste 0 1004.7 -0.9 56
2018-04-30 05:00:00 12.1 6 Noroeste 17 Noroeste 0 1004.9 -0.9 54
2018-04-30 04:00:00 11.6 3 Noroeste 7 Noroeste 0 1005 -0.8 57
2018-04-30 03:00:00 12.2 3 Sudeste 12 Noroeste 0 1005.6 -0.1 51
2018-04-30 02:00:00 12.9 4 Noroeste 12 Noroeste 0 1005.8 0.4 48
2018-04-30 01:00:00 13.8 4 Norte 10 Norte 0 1005.8 1.1 47
2018-04-30 00:00:00 15.2 6 Oeste 14 Oeste 0 1005.7 2.2 39
2018-04-29 23:00:00 15.8 5 Noroeste 18 Oeste 0 1005.4 2.9 37
2018-04-29 22:00:00 16.9 7 Noroeste 23 Oeste 0 1004.7 2.8 33
2018-04-29 21:00:00 18.2 9 Oeste 30 Noroeste 0 1003.5 2 30
2018-04-29 20:00:00 19.7 13 Oeste 35 Oeste 0 1002.5 1.3 25
2018-04-29 19:00:00 21.5 14 Oeste 54 Oeste 0 1001.9 0.6 22
2018-04-29 18:00:00 21.8 16 Oeste 48 Sudoeste 0 1001.5 -0.1 21
2018-04-29 17:00:00 22.6 17 Sudoeste 44 Oeste 0 1001.2 -0.3 20
2018-04-29 16:00:00 22.4 21 Sudoeste 42 Sudoeste 0 1001.3 0.1 21
2018-04-29 15:00:00 20.6 13 Oeste 47 Sudoeste 0 1001.6 0.5 25
2018-04-29 14:00:00 21.5 22 Sudoeste 47 Sudoeste 0 1001.5 0.8 23
2018-04-29 13:00:00 20.8 15 Oeste 46 Sudoeste 0 1001.2 1.3 26
2018-04-29 12:00:00 19.7 19 Oeste 38 Sudoeste 0 1001.1 1.8 29
2018-04-29 11:00:00 18.3 18 Sudoeste 40 Sudoeste 0 1000.7 1.9 31
2018-04-29 10:00:00 17.4 14 Sudoeste 30 Sudoeste 0 999.9 2.5 36
2018-04-29 09:00:00 16.1 12 Oeste 29 Oeste 0 999.3 2.3 45
2018-04-29 08:00:00 13.6 7 Oeste 23 Oeste 0 998.8 2.4 59
2018-04-29 07:00:00 11.5 5 Oeste 10 Oeste 0 997.4 0.8 74
2018-04-29 06:00:00 12.3 6 Oeste 14 Oeste 0 997 0.1 79
2018-04-29 05:00:00 12.3 3 Oeste 6 Noroeste 0 996.4 -0.8 94
2018-04-29 04:00:00 12.7 3 Noroeste 7 Noroeste 0 996.6 -1.1 94
2018-04-29 03:00:00 13 4 Oeste 9 Oeste 0 996.9 -1.2 92
2018-04-29 02:00:00 13.6 2 Sudoeste 8 Noroeste 0 997.2 -0.8 92
2018-04-29 01:00:00 14.3 4 Norte 12 Nordeste 0 997.7 0.1 93
2018-04-29 00:00:00 14.6 7 Nordeste 11 Nordeste 0 998.1 0.5 94
2018-04-28 23:00:00 14.9 6 Nordeste 12 Este 0 998 0.2 92
2018-04-28 22:00:00 15.6 6 Nordeste 13 Norte 0 997.6 -0.6 89
2018-04-28 21:00:00 16.2 7 Nordeste 13 Sudeste 0 997.6 -1 88
2018-04-28 20:00:00 17.1 5 Sudeste 14 Sudeste 0 997.8 -1.6 82
2018-04-28 19:00:00 18.7 9 Sudeste 16 Sudeste 0 998.2 -2 77
2018-04-28 18:00:00 18.2 8 Nordeste 17 Este 0 998.6 -2.3 78
2018-04-28 17:00:00 18.8 9 Nordeste 17 Este 0 999.4 -1.8 76
2018-04-28 16:00:00 18.2 6 Nordeste 15 Sudeste 0 1000.2 -1.6 78
2018-04-28 15:00:00 18.1 7 Este 18 Nordeste 0 1000.9 -1.2 81
2018-04-28 14:00:00 18.1 9 Este 21 Nordeste 0 1001.2 -0.8 80
2018-04-28 13:00:00 17.7 9 Este 21 Nordeste 0 1001.8 0 83
2018-04-28 12:00:00 17.3 11 Nordeste 21 Nordeste 0 1002.1 0.6 86
2018-04-28 11:00:00 17.3 11 Este 18 Este 0 1002 0.8 85
2018-04-28 10:00:00 17 10 Este 17 Nordeste 0 1001.8 1 89
2018-04-28 09:00:00 16.2 9 Nordeste 16 Norte 0 1001.5 1.2 94
2018-04-28 08:00:00 15.5 7 Nordeste 12 Este 0 1001.2 0.5 97
2018-04-28 07:00:00 15.4 8 Nordeste 15 Nordeste 0 1000.8 -0.1 96
2018-04-28 06:00:00 14.7 0 Calma 3 Noroeste 0 1000.3 -0.9 90
2018-04-28 05:00:00 15.4 2 Sudoeste 6 Noroeste 0 1000.7 -1.3 89
2018-04-28 04:00:00 16.2 3 Oeste 7 Norte 0 1000.9 -1.5 92
2018-04-28 03:00:00 16.7 2 Norte 7 Norte 0 1001.2 -1.2 91
2018-04-28 02:00:00 16.6 5 Norte 12 Nordeste 0 1002 -0.2 92
2018-04-28 01:00:00 16.7 5 Nordeste 24 Nordeste 0 1002.4 0.8 92
2018-04-28 00:00:00 17.4 8 Nordeste 17 Nordeste 0 1002.4 1.5 88
2018-04-27 23:00:00 19.2 6 Este 13 Este 0 1002.2 1.7 83
2018-04-27 22:00:00 20.4 4 Norte 14 Sudoeste 0 1001.6 0.2 80
2018-04-27 21:00:00 20.3 4 Sudoeste 13 Sur 0 1000.9 -1.8 80
2018-04-27 20:00:00 20.2 6 Oeste 22 Oeste 0.4 1000.5 -1.1 83
2018-04-27 19:00:00 19.6 6 Norte 44 Nordeste 4.4 1001.4 -0.3 81
2018-04-27 18:00:00 23.4 5 Sur 14 Sur 1.8 1002.7 0.8 68
2018-04-27 17:00:00 25.9 8 Sur 15 Sur 0 1001.6 -0.7 52
2018-04-27 16:00:00 24.7 7 Este 19 Nordeste 0 1001.7 -1.2 56
2018-04-27 15:00:00 22.3 7 Sudeste 17 Sudeste 0 1001.9 -1 65
2018-04-27 14:00:00 22 9 Sudeste 23 Sudeste 0 1002.3 -1 66
2018-04-27 13:00:00 21.3 14 Sudeste 25 Sudeste 0 1002.9 -0.7 68
2018-04-27 12:00:00 23.9 8 Sur 23 Sur 0 1002.9 -1 56
2018-04-27 11:00:00 21.3 10 Sur 18 Sur 0 1003.3 -0.7 62
2018-04-27 10:00:00 18.4 5 Sur 10 Sur 0 1003.6 -0.3 73
2018-04-27 09:00:00 16.5 3 Sur 8 Sudoeste 0 1003.9 0.1 78
2018-04-27 08:00:00 14.2 4 Sudoeste 8 Sur 0 1004 -0.3 87
2018-04-27 07:00:00 13.5 3 Oeste 6 Noroeste 0 1003.9 -0.8 83
2018-04-27 06:00:00 13.4 3 Oeste 7 Noroeste 0 1003.8 -1.6 86
2018-04-27 05:00:00 13.4 3 Oeste 9 Oeste 0 1004.3 -2 85
2018-04-27 04:00:00 13.9 4 Oeste 9 Noroeste 0 1004.7 -2.2 81
2018-04-27 03:00:00 14.5 3 Oeste 8 Oeste 0 1005.4 -1.8 86
2018-04-27 02:00:00 15 5 Oeste 10 Oeste 0 1006.3 -1.1 84
2018-04-27 01:00:00 15.3 3 Sudoeste 12 Sudoeste 0 1006.9 -0.4 81
2018-04-27 00:00:00 15.8 7 Sudoeste 12 Sudoeste 0 1007.2 0.2 82
2018-04-26 23:00:00 16.1 5 Sudoeste 9 Sudoeste 0 1007.4 0.3 79
2018-04-26 22:00:00 16.7 3 Sudoeste 9 Sudoeste 0 1007.3 0.4 76
2018-04-26 21:00:00 17.6 4 Sur 6 Sur 0 1007 0.2 70
2018-04-26 20:00:00 18.4 4 Sudeste 15 Sudeste 0 1007.1 0 69
2018-04-26 19:00:00 19.5 6 Este 17 Nordeste 0 1006.9 -0.3 62
2018-04-26 18:00:00 20.3 9 Este 20 Nordeste 0 1006.8 -0.7 61
2018-04-26 17:00:00 19.4 12 Este 28 Nordeste 0 1007.1 -0.3 65
2018-04-26 16:00:00 19.4 15 Este 31 Este 0 1007.2 -0.3 64
2018-04-26 15:00:00 19.7 14 Este 27 Nordeste 0 1007.5 0 67
2018-04-26 14:00:00 20.7 16 Este 25 Este 0 1007.4 0.1 67
2018-04-26 13:00:00 21.6 15 Sudeste 25 Sur 0 1007.5 0.5 61
2018-04-26 12:00:00 21.2 10 Este 20 Nordeste 0 1007.5 0.5 52
2018-04-26 11:00:00 20.3 12 Este 26 Nordeste 0 1007.3 1.4 55
2018-04-26 10:00:00 19.8 6 Norte 20 Nordeste 0 1007 2.4 59
2018-04-26 09:00:00 17.4 5 Sudeste 8 Sudeste 0 1007 2.8 78
2018-04-26 08:00:00 17.3 5 Sudeste 11 Sudeste 0 1005.9 2 76
2018-04-26 07:00:00 17.5 5 Sur 16 Sudeste 0 1004.6 0.2 72
2018-04-26 06:00:00 19.2 6 Nordeste 21 Norte 0 1004.2 -1 47
2018-04-26 05:00:00 19.4 9 Norte 23 Norte 0 1003.9 -2.2 48
2018-04-26 04:00:00 18.8 9 Norte 21 Noroeste 0 1004.4 -2 56
2018-04-26 03:00:00 17.7 4 Noroeste 8 Oeste 0.2 1005.2 -1.7 81
2018-04-26 02:00:00 17.7 4 Noroeste 6 Noroeste 0 1006.1 -0.9 84
2018-04-26 01:00:00 18 4 Norte 15 Este 0 1006.4 0.1 81
2018-04-26 00:00:00 18.4 3 Sudoeste 6 Sudoeste 0.8 1006.9 1.3 84
2018-04-25 23:00:00 19.2 2 Noroeste 6 Nordeste 0 1007 2 70
2018-04-25 22:00:00 19.3 3 Sudeste 11 Noroeste 0 1006.3 1.1 67
2018-04-25 21:00:00 19.8 5 Este 14 Este 0 1005.6 0.7 63
2018-04-25 20:00:00 21.1 9 Este 22 Nordeste 0 1005 0.2 57
2018-04-25 19:00:00 21.1 6 Este 15 Nordeste 0 1005.2 -0.8 60
2018-04-25 18:00:00 19.4 6 Este 13 Este 0 1004.9 -1.4 66
2018-04-25 17:00:00 18.5 4 Norte 16 Nordeste 0.2 1004.8 -1.8 74
2018-04-25 16:00:00 17 8 Nordeste 22 Nordeste 0.4 1006 -1.1 81
2018-04-25 15:00:00 18.4 6 Nordeste 16 Este 0.2 1006.3 -1.4 68
2018-04-25 14:00:00 20 8 Nordeste 22 Este 0 1006.6 -1 55
2018-04-25 13:00:00 19.9 6 Nordeste 23 Este 0 1007.1 1.3 58
2018-04-25 12:00:00 19.4 8 Este 21 Este 0 1007.7 2.6 62
2018-04-25 11:00:00 19.1 10 Sudeste 27 Sur 0 1007.6 2.8 61
2018-04-25 10:00:00 19.8 7 Sur 15 Sudoeste 0 1005.8 0.8 49
2018-04-25 09:00:00 19.2 4 Oeste 13 Oeste 0 1005.1 0.8 46
2018-04-25 08:00:00 18.4 4 Oeste 13 Oeste 0 1004.8 0.8 47
2018-04-25 07:00:00 18.5 4 Noroeste 7 Sudeste 0 1005 1.1 47
2018-04-25 06:00:00 19.1 3 Oeste 6 Nordeste 0 1004.3 -0.3 47
2018-04-25 05:00:00 20.1 2 Norte 11 Nordeste 0 1004 -2.6 45
2018-04-25 04:00:00 20.8 6 Nordeste 18 Nordeste 0 1003.9 -3.4 40
2018-04-25 03:00:00 20.4 9 Nordeste 20 Nordeste 0 1004.6 -1.9 40
2018-04-25 02:00:00 19.6 6 Norte 13 Nordeste 0 1006.6 1.1 44
2018-04-25 01:00:00 19.8 4 Este 8 Este 0 1007.3 2.2 43
2018-04-25 00:00:00 20.2 4 Nordeste 15 Norte 0 1006.5 1.6 39
2018-04-24 23:00:00 20.4 6 Noroeste 16 Nordeste 0 1005.5 0.5 40
2018-04-24 22:00:00 20.9 7 Nordeste 31 Nordeste 0 1005.1 0.1 42
2018-04-24 21:00:00 20.7 17 Nordeste 37 Este 0 1004.9 0.2 45
2018-04-24 20:00:00 21.2 21 Este 37 Nordeste 0 1005 0.3 45
2018-04-24 19:00:00 22.9 22 Este 46 Este 0 1005 0.2 40
2018-04-24 18:00:00 23.5 24 Este 56 Este 0 1004.7 -0.7 40
2018-04-24 17:00:00 24.6 29 Este 56 Este 0 1004.7 -0.9 37
2018-04-24 16:00:00 25 26 Este 55 Este 0 1004.8 -1.7 37
2018-04-24 15:00:00 25.1 26 Este 50 Nordeste 0 1005.4 -1.4 37
2018-04-24 14:00:00 25.2 24 Este 55 Este 0 1005.6 -1 37
2018-04-24 13:00:00 24.7 31 Nordeste 52 Este 0 1006.5 0.5 37
2018-04-24 12:00:00 24.7 24 Nordeste 53 Este 0 1006.8 1 33
2018-04-24 11:00:00 23.6 26 Este 51 Este 0 1006.6 1.6 36
2018-04-24 10:00:00 22.9 25 Nordeste 49 Nordeste 0 1006 2 34
2018-04-24 09:00:00 21.2 17 Este 34 Nordeste 0 1005.8 0.1 39
2018-04-24 08:00:00 21.1 19 Este 37 Este 0 1005 -1.3 39
2018-04-24 07:00:00 20.6 16 Nordeste 32 Nordeste 0 1004 -3 35
2018-04-24 06:00:00 19.6 19 Nordeste 33 Nordeste 0 1005.7 -0.8 48
2018-04-24 05:00:00 21 20 Nordeste 36 Nordeste 0 1006.3 0 42
2018-04-24 04:00:00 22 14 Nordeste 38 Nordeste 0 1007 0.5 32
2018-04-24 03:00:00 21.7 10 Nordeste 28 Nordeste 0 1006.5 -0.8 33
2018-04-24 02:00:00 21.8 14 Nordeste 37 Este 0 1006.3 -1 27
2018-04-24 01:00:00 20.1 12 Nordeste 28 Nordeste 0 1006.5 0.1 33
2018-04-24 00:00:00 20 8 Nordeste 17 Nordeste 0 1007.3 1.7 40